createdAt,value
2018-09-20T00:01:39.804Z,12.73
2018-09-20T00:04:07.964Z,13.63
2018-09-20T00:06:36.364Z,17.97
2018-09-20T00:09:06.312Z,12.53
2018-09-20T00:11:34.584Z,8.77
2018-09-20T00:14:02.879Z,12.40
2018-09-20T00:16:31.824Z,13.47
2018-09-20T00:18:59.925Z,13.57
2018-09-20T00:21:28.041Z,11.37
2018-09-20T00:23:56.338Z,9.33
2018-09-20T00:26:24.489Z,11.13
2018-09-20T00:28:52.473Z,14.00
2018-09-20T00:31:20.856Z,12.37
2018-09-20T00:33:50.677Z,11.87
2018-09-20T00:36:19.036Z,11.00
2018-09-20T00:38:48.053Z,16.20
2018-09-20T00:41:17.269Z,12.50
2018-09-20T00:43:45.766Z,13.20
2018-09-20T00:46:14.085Z,12.80
2018-09-20T00:48:42.150Z,13.03
2018-09-20T00:51:10.212Z,9.30
2018-09-20T00:53:38.285Z,11.83
2018-09-20T00:56:06.301Z,14.43
2018-09-20T00:58:34.339Z,13.60
2018-09-20T01:01:02.549Z,15.10
2018-09-20T01:03:30.812Z,11.63
2018-09-20T01:05:59.141Z,10.73
2018-09-20T01:08:27.549Z,17.77
2018-09-20T01:10:56.210Z,14.97
2018-09-20T01:13:24.486Z,18.07
2018-09-20T01:15:52.498Z,11.20
2018-09-20T01:18:20.518Z,11.63
2018-09-20T01:20:48.974Z,16.90
2018-09-20T01:23:18.433Z,14.33
2018-09-20T01:25:46.766Z,11.53
2018-09-20T01:28:15.998Z,12.67
2018-09-20T01:30:44.623Z,14.63
2018-09-20T01:33:13.063Z,15.47
2018-09-20T01:35:41.508Z,12.30
2018-09-20T01:38:09.762Z,11.70
2018-09-20T01:40:38.717Z,15.23
2018-09-20T01:43:07.158Z,16.90
2018-09-20T01:45:35.569Z,14.65
2018-09-20T01:48:03.873Z,14.20
2018-09-20T01:50:32.330Z,13.63
2018-09-20T01:53:00.754Z,15.20
2018-09-20T01:55:29.241Z,18.83
2018-09-20T01:57:57.759Z,15.80
2018-09-20T02:00:26.379Z,18.97
2018-09-20T02:02:55.813Z,12.73
2018-09-20T02:05:24.274Z,14.63
2018-09-20T02:07:52.542Z,14.57
2018-09-20T02:10:20.803Z,14.37
2018-09-20T02:12:50.538Z,15.23
2018-09-20T02:15:19.194Z,10.60
2018-09-20T02:17:48.747Z,19.97
2018-09-20T02:20:17.555Z,13.60
2018-09-20T02:22:46.071Z,12.80
2018-09-20T02:25:14.503Z,15.13
2018-09-20T02:27:43.631Z,11.70
2018-09-20T02:30:12.420Z,14.30
2018-09-20T02:32:40.934Z,11.50
2018-09-20T02:35:10.035Z,14.63
2018-09-20T02:37:38.367Z,13.03
2018-09-20T02:40:07.079Z,15.63
2018-09-20T02:42:35.487Z,16.83
2018-09-20T02:45:03.822Z,12.10
2018-09-20T02:47:32.171Z,13.23
2018-09-20T02:50:00.576Z,11.87
2018-09-20T02:52:28.972Z,17.57
2018-09-20T02:54:57.380Z,12.87
2018-09-20T02:57:25.672Z,11.30
2018-09-20T02:59:53.939Z,14.07
2018-09-20T03:02:22.203Z,12.50
2018-09-20T03:04:50.804Z,16.27
2018-09-20T03:07:19.151Z,14.57
2018-09-20T03:09:47.784Z,13.57
2018-09-20T03:12:20.420Z,14.17
2018-09-20T03:14:49.327Z,15.00
2018-09-20T03:17:17.555Z,14.00
2018-09-20T03:19:45.876Z,17.67
2018-09-20T03:22:14.932Z,12.23
2018-09-20T03:24:43.892Z,16.70
2018-09-20T03:27:12.631Z,15.97
2018-09-20T03:29:50.279Z,13.97
2018-09-20T03:32:18.712Z,15.73
2018-09-20T03:34:48.165Z,17.40
2018-09-20T03:40:24.860Z,14.27
2018-09-20T03:42:53.140Z,15.17
2018-09-20T03:45:21.485Z,15.07
2018-09-20T03:47:50.125Z,12.40
2018-09-20T03:50:19.092Z,16.03
2018-09-20T03:52:47.568Z,17.97
2018-09-20T03:55:16.200Z,17.50
2018-09-20T03:57:44.532Z,14.20
2018-09-20T04:00:12.836Z,19.00
2018-09-20T04:02:41.143Z,16.63
2018-09-20T04:05:09.468Z,17.67
2018-09-20T04:07:38.557Z,18.47
2018-09-20T04:10:06.900Z,16.17
2018-09-20T04:12:35.189Z,12.63
2018-09-20T04:15:03.481Z,14.63
2018-09-20T04:17:31.864Z,16.47
2018-09-20T04:20:00.162Z,16.47
2018-09-20T04:22:28.492Z,18.53
2018-09-20T04:24:59.413Z,15.93
2018-09-20T04:27:28.121Z,18.33
2018-09-20T04:29:56.400Z,13.83
2018-09-20T04:32:24.756Z,17.50
2018-09-20T04:34:53.209Z,19.10
2018-09-20T04:37:21.481Z,12.93
2018-09-20T04:39:50.817Z,16.07
2018-09-20T04:42:19.307Z,18.87
2018-09-20T04:44:48.186Z,17.67
2018-09-20T04:47:19.173Z,16.27
2018-09-20T04:49:47.529Z,16.37
2018-09-20T04:52:19.081Z,17.87
2018-09-20T04:54:47.641Z,16.77
2018-09-20T04:57:16.145Z,16.10
2018-09-20T04:59:44.744Z,21.60
2018-09-20T05:02:13.254Z,20.60
2018-09-20T05:04:42.381Z,17.73
2018-09-20T05:07:10.702Z,20.00
2018-09-20T05:09:39.165Z,15.97
2018-09-20T05:12:07.422Z,16.73
2018-09-20T05:14:35.794Z,17.67
2018-09-20T05:17:04.190Z,18.10
2018-09-20T05:19:32.570Z,17.57
2018-09-20T05:22:00.866Z,16.30
2018-09-20T05:24:29.453Z,22.10
2018-09-20T05:26:57.722Z,17.73
2018-09-20T05:29:26.222Z,23.23
2018-09-20T05:31:54.526Z,22.47
2018-09-20T05:34:22.939Z,18.23
2018-09-20T05:36:51.292Z,16.10
2018-09-20T05:39:19.857Z,14.93
2018-09-20T05:41:48.453Z,19.37
2018-09-20T05:44:17.506Z,21.97
2018-09-20T05:46:46.374Z,17.23
2018-09-20T05:49:14.762Z,18.30
2018-09-20T05:51:43.935Z,19.40
2018-09-20T05:54:12.242Z,17.62
2018-09-20T05:56:41.230Z,14.67
2018-09-20T05:59:09.764Z,18.27
2018-09-20T06:01:38.017Z,19.50
2018-09-20T06:04:06.333Z,14.80
2018-09-20T06:06:34.618Z,22.47
2018-09-20T06:09:03.086Z,13.23
2018-09-20T06:11:33.075Z,20.83
2018-09-20T06:14:01.443Z,18.07
2018-09-20T06:16:30.100Z,19.27
2018-09-20T06:18:58.663Z,17.90
2018-09-20T06:21:26.730Z,16.37
2018-09-20T06:23:54.902Z,17.40
2018-09-20T06:26:23.415Z,17.47
2018-09-20T06:28:51.770Z,17.57
2018-09-20T06:31:20.123Z,21.97
2018-09-20T06:33:48.418Z,15.67
2018-09-20T06:36:16.839Z,16.17
2018-09-20T06:38:45.107Z,16.43
2018-09-20T06:41:13.175Z,16.27
2018-09-20T06:43:42.687Z,15.57
2018-09-20T06:46:10.739Z,17.83
2018-09-20T06:48:39.047Z,14.07
2018-09-20T06:51:07.438Z,14.23
2018-09-20T06:53:35.679Z,19.30
2018-09-20T06:56:03.970Z,17.33
2018-09-20T06:58:32.232Z,15.90
2018-09-20T07:01:00.234Z,14.67
2018-09-20T07:03:28.275Z,16.17
2018-09-20T07:05:56.802Z,15.27
2018-09-20T07:08:24.800Z,14.37
2018-09-20T07:10:53.235Z,13.67
2018-09-20T07:13:21.552Z,17.13
2018-09-20T07:15:49.844Z,12.87
2018-09-20T07:18:18.108Z,12.50
2018-09-20T07:20:46.396Z,13.43
2018-09-20T07:23:14.668Z,17.33
2018-09-20T07:25:43.167Z,18.57
2018-09-20T07:28:11.460Z,17.93
2018-09-20T07:30:39.736Z,18.10
2018-09-20T07:33:08.071Z,13.67
2018-09-20T07:35:36.382Z,14.37
2018-09-20T07:38:04.664Z,14.93
2018-09-20T07:40:32.928Z,18.00
2018-09-20T07:43:01.190Z,15.73
2018-09-20T07:45:29.454Z,13.70
2018-09-20T07:47:57.728Z,16.67
2018-09-20T07:50:26.016Z,14.80
2018-09-20T07:52:54.276Z,15.60
2018-09-20T07:55:22.592Z,12.73
2018-09-20T07:57:50.940Z,15.83
2018-09-20T08:00:19.440Z,15.90
2018-09-20T08:02:47.760Z,15.83
2018-09-20T08:05:16.028Z,16.43
2018-09-20T08:07:44.328Z,17.70
2018-09-20T08:10:12.696Z,15.95
2018-09-20T08:12:40.976Z,18.70
2018-09-20T08:15:09.268Z,14.37
2018-09-20T08:17:37.504Z,16.97
2018-09-20T08:20:05.833Z,13.23
2018-09-20T08:22:34.169Z,14.07
2018-09-20T08:25:02.416Z,14.20
2018-09-20T08:27:30.812Z,14.47
2018-09-20T08:29:59.093Z,15.97
2018-09-20T08:32:27.154Z,16.23
2018-09-20T08:34:55.236Z,16.70
2018-09-20T08:37:23.425Z,16.70
2018-09-20T08:39:51.416Z,14.53
2018-09-20T08:42:19.506Z,13.03
2018-09-20T08:44:47.465Z,13.07
2018-09-20T08:47:15.453Z,17.27
2018-09-20T08:49:43.461Z,14.37
2018-09-20T08:52:11.777Z,12.87
2018-09-20T08:54:40.101Z,14.70
2018-09-20T08:57:08.458Z,14.03
2018-09-20T08:59:36.708Z,11.33
2018-09-20T09:02:04.989Z,18.20
2018-09-20T09:04:33.274Z,12.47
2018-09-20T09:07:01.563Z,11.27
2018-09-20T09:09:29.920Z,12.83
2018-09-20T09:11:58.246Z,12.70
2018-09-20T09:14:26.609Z,13.13
2018-09-20T09:16:54.889Z,10.50
2018-09-20T09:19:23.191Z,13.23
2018-09-20T09:21:51.209Z,10.60
2018-09-20T09:24:19.333Z,10.20
2018-09-20T09:26:47.381Z,13.60
2018-09-20T09:29:15.421Z,10.43
2018-09-20T09:31:43.424Z,14.57
2018-09-20T09:34:11.460Z,13.67
2018-09-20T09:36:39.477Z,9.83
2018-09-20T09:39:08.162Z,14.60
2018-09-20T09:41:36.203Z,11.77
2018-09-20T09:44:04.193Z,12.50
2018-09-20T09:46:32.197Z,11.13
2018-09-20T09:49:00.261Z,11.13
2018-09-20T09:51:28.310Z,10.80
2018-09-20T09:53:56.374Z,14.77
2018-09-20T09:56:24.421Z,8.30
2018-09-20T09:58:52.430Z,8.97
2018-09-20T10:01:20.473Z,8.83
2018-09-20T10:03:48.498Z,12.63
2018-09-20T10:06:16.491Z,11.43
2018-09-20T10:08:44.578Z,11.33
2018-09-20T10:11:12.634Z,8.30
2018-09-20T10:13:40.639Z,8.33
2018-09-20T10:16:08.685Z,9.90
2018-09-20T10:18:36.677Z,9.33
2018-09-20T10:21:04.682Z,7.23
2018-09-20T10:23:32.682Z,11.83
2018-09-20T10:26:00.670Z,12.85
2018-09-20T10:28:28.770Z,33.45
2018-09-20T10:30:57.238Z,11.18
2018-09-20T10:33:25.302Z,10.13
2018-09-20T10:35:53.442Z,10.07
2018-09-20T10:38:21.558Z,11.10
2018-09-20T10:40:49.822Z,10.78
2018-09-20T10:43:17.859Z,9.60
2018-09-20T10:45:45.943Z,12.33
2018-09-20T10:48:14.209Z,11.30
2018-09-20T10:50:42.554Z,9.43
2018-09-20T10:53:10.843Z,9.00
2018-09-20T10:55:39.091Z,8.00
2018-09-20T10:58:07.379Z,7.92
2018-09-20T11:00:35.667Z,9.40
2018-09-20T11:03:04.086Z,7.12
2018-09-20T11:05:32.337Z,7.57
2018-09-20T11:08:00.579Z,7.67
2018-09-20T11:10:28.955Z,7.55
2018-09-20T11:12:57.316Z,5.55
2018-09-20T11:15:25.579Z,9.73
2018-09-20T11:17:53.915Z,6.75
2018-09-20T11:20:22.584Z,6.10
2018-09-20T11:22:50.849Z,6.12
2018-09-20T11:25:19.112Z,8.47
2018-09-20T11:27:47.391Z,8.03
2018-09-20T11:30:15.432Z,13.65
2018-09-20T11:32:46.231Z,8.17
2018-09-20T11:35:14.636Z,8.10
2018-09-20T11:37:42.756Z,10.57
2018-09-20T11:40:11.120Z,8.87
2018-09-20T11:42:39.176Z,10.47
2018-09-20T11:45:07.224Z,5.83
2018-09-20T11:47:35.247Z,8.95
2018-09-20T11:50:03.657Z,8.93
2018-09-20T11:52:31.773Z,8.10
2018-09-20T11:54:59.800Z,6.08
2018-09-20T11:57:27.825Z,6.05
2018-09-20T11:59:55.835Z,5.40
2018-09-20T12:02:24.128Z,10.00
2018-09-20T12:04:52.152Z,6.00
2018-09-20T12:07:20.151Z,8.38
2018-09-20T12:09:48.299Z,7.58
2018-09-20T12:12:16.324Z,6.17
2018-09-20T12:14:44.316Z,6.78
2018-09-20T12:17:12.294Z,7.75
2018-09-20T12:19:40.408Z,7.90
2018-09-20T12:22:08.752Z,4.33
2018-09-20T12:24:37.008Z,6.97
2018-09-20T12:27:05.316Z,7.27
2018-09-20T12:29:33.364Z,7.78
2018-09-20T12:32:01.393Z,10.08
2018-09-20T12:34:29.377Z,9.63
2018-09-20T12:36:58.132Z,8.15
2018-09-20T12:39:26.148Z,7.65
2018-09-20T12:41:54.219Z,9.83
2018-09-20T12:44:22.240Z,5.47
2018-09-20T12:46:50.592Z,7.53
2018-09-20T12:49:18.852Z,9.33
2018-09-20T12:51:47.117Z,9.25
2018-09-20T12:54:15.236Z,6.90
2018-09-20T12:56:43.232Z,11.33
2018-09-20T12:59:11.232Z,7.30
2018-09-20T13:01:39.273Z,10.68
2018-09-20T13:04:07.248Z,5.05
2018-09-20T13:06:35.248Z,7.33
2018-09-20T13:09:03.481Z,7.42
2018-09-20T13:11:31.480Z,6.25
2018-09-20T13:13:59.601Z,7.55
2018-09-20T13:16:27.641Z,6.25
2018-09-20T13:18:55.649Z,10.38
2018-09-20T13:21:23.657Z,8.98
2018-09-20T13:23:51.765Z,5.35
2018-09-20T13:26:19.909Z,9.13
2018-09-20T13:28:47.912Z,9.53
2018-09-20T13:31:15.965Z,6.50
2018-09-20T13:33:44.013Z,6.45
2018-09-20T13:36:12.022Z,6.97
2018-09-20T13:38:40.001Z,6.85
2018-09-20T13:41:11.105Z,6.03
2018-09-20T13:43:39.231Z,8.10
2018-09-20T13:46:07.241Z,6.40
2018-09-20T13:48:35.325Z,6.30
2018-09-20T13:51:03.309Z,6.55
2018-09-20T13:53:31.276Z,8.93
2018-09-20T13:55:59.631Z,10.72
2018-09-20T13:58:27.673Z,7.22
2018-09-20T14:00:55.670Z,7.00
2018-09-20T14:03:24.093Z,8.65
2018-09-20T14:05:52.158Z,9.43
2018-09-20T14:08:20.137Z,8.93
2018-09-20T14:10:48.193Z,8.13
2018-09-20T14:13:16.149Z,7.08
2018-09-20T14:15:44.164Z,8.83
2018-09-20T14:20:46.576Z,7.00
2018-09-20T14:23:14.658Z,5.87
2018-09-20T14:25:42.857Z,7.87
2018-09-20T14:28:10.892Z,6.20
2018-09-20T14:30:38.913Z,8.08
2018-09-20T14:33:06.985Z,8.87
2018-09-20T14:35:34.981Z,8.60
2018-09-20T14:38:03.089Z,5.85
2018-09-20T14:40:31.160Z,4.92
2018-09-20T14:42:59.777Z,7.10
2018-09-20T14:45:27.761Z,4.62
2018-09-20T14:47:55.804Z,6.00
2018-09-20T14:50:23.816Z,6.00
2018-09-20T14:52:51.893Z,9.18
2018-09-20T14:55:20.195Z,13.80
2018-09-20T14:57:48.221Z,8.10
2018-09-20T15:00:16.386Z,5.55
2018-09-20T15:02:44.418Z,6.28
2018-09-20T15:05:12.538Z,6.40
2018-09-20T15:07:40.554Z,7.50
2018-09-20T15:10:08.598Z,9.88
2018-09-20T15:12:36.666Z,8.93
2018-09-20T15:15:04.761Z,7.87
2018-09-20T15:17:32.861Z,6.92
2018-09-20T15:20:01.026Z,5.65
2018-09-20T15:22:29.078Z,7.37
2018-09-20T15:24:57.183Z,7.50
2018-09-20T15:27:25.211Z,10.18
2018-09-20T15:29:53.227Z,5.85
2018-09-20T15:32:21.384Z,7.70
2018-09-20T15:34:49.364Z,7.37
2018-09-20T15:37:17.343Z,6.67
2018-09-20T15:39:45.462Z,7.40
2018-09-20T15:42:13.419Z,5.80
2018-09-20T15:44:41.431Z,8.08
2018-09-20T15:47:09.484Z,6.50
2018-09-20T15:49:37.508Z,7.50
2018-09-20T15:52:05.560Z,11.12
2018-09-20T15:54:33.560Z,5.70
2018-09-20T15:57:01.565Z,10.23
2018-09-20T15:59:29.752Z,7.30
2018-09-20T16:01:57.768Z,5.60
2018-09-20T16:04:25.848Z,6.30
2018-09-20T16:06:53.948Z,8.77
2018-09-20T16:09:22.020Z,9.07
2018-09-20T16:11:50.612Z,8.23
2018-09-20T16:14:18.745Z,7.22
2018-09-20T16:16:46.777Z,7.40
2018-09-20T16:19:14.744Z,6.77
2018-09-20T16:21:42.789Z,7.83
2018-09-20T16:24:10.777Z,6.40
2018-09-20T16:26:38.784Z,8.33
2018-09-20T16:29:13.340Z,5.63
2018-09-20T16:31:48.829Z,7.37
2018-09-20T16:34:22.756Z,4.10
2018-09-20T16:36:58.648Z,7.03
2018-09-20T16:39:28.874Z,6.53
2018-09-20T16:41:59.888Z,8.03
2018-09-20T16:44:27.889Z,6.78
2018-09-20T16:46:55.973Z,8.27
2018-09-20T16:49:23.968Z,7.03
2018-09-20T16:51:51.956Z,7.45
2018-09-20T16:54:20.041Z,8.20
2018-09-20T16:56:48.084Z,9.68
2018-09-20T16:59:16.157Z,6.95
2018-09-20T17:01:44.238Z,5.42
2018-09-20T17:04:12.302Z,5.12
2018-09-20T17:06:40.333Z,7.07
2018-09-20T17:09:08.777Z,6.15
2018-09-20T17:11:36.779Z,13.13
2018-09-20T17:14:04.816Z,9.27
2018-09-20T17:16:32.898Z,9.47
2018-09-20T17:19:00.888Z,10.30
2018-09-20T17:21:28.904Z,7.57
2018-09-20T17:23:56.895Z,8.83
2018-09-20T17:26:24.923Z,5.13
2018-09-20T17:28:52.997Z,9.07
2018-09-20T17:31:21.114Z,6.67
2018-09-20T17:33:49.237Z,7.57
2018-09-20T17:36:17.410Z,7.33
2018-09-20T17:38:45.906Z,4.97
2018-09-20T17:41:16.786Z,7.27
2018-09-20T17:43:50.834Z,7.90
2018-09-20T17:46:18.869Z,5.23
2018-09-20T17:48:47.161Z,11.37
2018-09-20T17:51:16.197Z,7.33
2018-09-20T17:53:44.616Z,7.43
2018-09-20T17:56:13.278Z,7.37
2018-09-20T17:58:41.794Z,7.73
2018-09-20T18:01:09.883Z,8.23
2018-09-20T18:03:37.878Z,7.13
2018-09-20T18:06:05.948Z,5.90
2018-09-20T18:08:34.284Z,9.60
2018-09-20T18:11:02.301Z,9.47
2018-09-20T18:13:30.462Z,7.47
2018-09-20T18:15:58.500Z,7.73
2018-09-20T18:18:26.534Z,10.60
2018-09-20T18:20:54.552Z,11.13
2018-09-20T18:23:22.608Z,9.23
2018-09-20T18:25:50.617Z,12.07
2018-09-20T18:28:18.641Z,6.30
2018-09-20T18:30:46.660Z,11.73
2018-09-20T18:33:14.775Z,12.27
2018-09-20T18:35:42.906Z,8.70
2018-09-20T18:38:11.024Z,8.40
2018-09-20T18:40:39.045Z,10.87
2018-09-20T18:43:07.049Z,11.47
2018-09-20T18:45:35.105Z,12.03
2018-09-20T18:48:03.192Z,10.07
2018-09-20T18:50:31.580Z,10.70
2018-09-20T18:53:00.320Z,9.00
2018-09-20T18:55:28.368Z,11.97
2018-09-20T18:57:56.481Z,12.73
2018-09-20T19:00:24.785Z,12.60
2018-09-20T19:02:52.837Z,14.43
2018-09-20T19:05:20.857Z,8.67
2018-09-20T19:07:48.890Z,10.00
2018-09-20T19:10:16.869Z,13.60
2018-09-20T19:12:44.918Z,10.57
2018-09-20T19:15:12.945Z,10.00
2018-09-20T19:17:40.953Z,9.13
2018-09-20T19:20:09.325Z,8.23
2018-09-20T19:22:37.377Z,11.20
2018-09-20T19:25:05.409Z,12.17
2018-09-20T19:27:34.081Z,10.43
2018-09-20T19:30:02.006Z,8.20
2018-09-20T19:32:30.014Z,10.93
2018-09-20T19:34:58.030Z,11.57
2018-09-20T19:37:26.047Z,12.03
2018-09-20T19:39:54.186Z,13.50
2018-09-20T19:42:22.246Z,13.23
2018-09-20T19:44:50.306Z,10.13
2018-09-20T19:47:18.336Z,13.43
2018-09-20T19:49:46.470Z,10.47
2018-09-20T19:52:14.495Z,10.43
2018-09-20T19:54:42.907Z,12.43
2018-09-20T19:57:10.899Z,8.27
2018-09-20T19:59:38.990Z,8.00
2018-09-20T20:02:07.174Z,9.83
2018-09-20T20:04:35.209Z,13.13
2018-09-20T20:07:03.229Z,12.17
2018-09-20T20:09:31.257Z,7.60
2018-09-20T20:11:59.369Z,8.53
2018-09-20T20:14:27.364Z,9.20
2018-09-20T20:16:55.405Z,10.03
2018-09-20T20:19:23.480Z,15.67
2018-09-20T20:21:51.937Z,10.27
2018-09-20T20:24:20.005Z,14.33
2018-09-20T20:26:48.033Z,13.83
2018-09-20T20:29:16.064Z,11.63
2018-09-20T20:31:44.125Z,14.17
2018-09-20T20:34:12.213Z,14.17
2018-09-20T20:36:40.254Z,11.50
2018-09-20T20:39:08.613Z,12.60
2018-09-20T20:41:36.648Z,12.83
2018-09-20T20:44:04.721Z,13.93
2018-09-20T20:46:32.729Z,10.73
2018-09-20T20:49:01.481Z,11.33
2018-09-20T20:51:29.537Z,10.80
2018-09-20T20:53:57.542Z,7.77
2018-09-20T20:56:25.797Z,7.33
2018-09-20T20:58:54.135Z,7.93
2018-09-20T21:01:22.342Z,10.43
2018-09-20T21:03:50.937Z,8.27
2018-09-20T21:06:19.566Z,10.45
2018-09-20T21:08:48.121Z,12.83
2018-09-20T21:11:16.843Z,10.50
2018-09-20T21:13:45.121Z,10.37
2018-09-20T21:16:13.411Z,11.40
2018-09-20T21:18:41.951Z,10.20
2018-09-20T21:21:10.250Z,9.47
2018-09-20T21:23:38.234Z,8.07
2018-09-20T21:26:06.251Z,9.47
2018-09-20T21:28:34.268Z,10.07
2018-09-20T21:31:02.271Z,12.03
2018-09-20T21:33:30.343Z,10.77
2018-09-20T21:35:58.410Z,12.30
2018-09-20T21:38:26.431Z,9.27
2018-09-20T21:40:54.473Z,6.77
2018-09-20T21:43:22.467Z,6.93
2018-09-20T21:45:51.204Z,8.63
2018-09-20T21:48:19.266Z,5.00
2018-09-20T21:50:47.560Z,6.47
2018-09-20T21:53:15.800Z,9.43
2018-09-20T21:55:44.072Z,9.00
2018-09-20T21:58:12.321Z,7.33
2018-09-20T22:00:40.312Z,10.63
2018-09-20T22:03:08.300Z,5.73
2018-09-20T22:05:36.324Z,7.27
2018-09-20T22:08:04.343Z,6.80
2018-09-20T22:10:32.608Z,5.93
2018-09-20T22:13:00.608Z,5.77
2018-09-20T22:15:29.533Z,5.80
2018-09-20T22:17:58.080Z,7.53
2018-09-20T22:20:27.633Z,7.10
2018-09-20T22:22:55.636Z,5.90
2018-09-20T22:25:23.692Z,7.83
2018-09-20T22:27:51.815Z,6.13
2018-09-20T22:30:19.876Z,9.17
2018-09-20T22:32:48.046Z,7.63
2018-09-20T22:35:16.029Z,9.10
2018-09-20T22:37:44.036Z,6.73
2018-09-20T22:40:12.021Z,7.53
2018-09-20T22:42:40.021Z,7.07
2018-09-20T22:45:08.033Z,6.77
2018-09-20T22:47:36.026Z,8.07
2018-09-20T22:50:04.024Z,9.90
2018-09-20T22:52:32.015Z,8.33
2018-09-20T22:55:00.017Z,8.60
2018-09-20T22:57:28.289Z,6.00
2018-09-20T22:59:56.613Z,6.23
2018-09-20T23:02:26.376Z,11.83
2018-09-20T23:04:54.705Z,7.80
2018-09-20T23:07:22.963Z,9.57
2018-09-20T23:09:51.215Z,6.07
2018-09-20T23:12:19.465Z,8.63
2018-09-20T23:14:47.705Z,8.50
2018-09-20T23:17:15.961Z,7.30
2018-09-20T23:19:44.198Z,7.97
2018-09-20T23:22:12.457Z,7.33
2018-09-20T23:24:40.701Z,8.97
2018-09-20T23:27:08.992Z,11.28
2018-09-20T23:29:37.270Z,7.63
2018-09-20T23:32:05.593Z,8.67
2018-09-20T23:34:33.861Z,5.77
2018-09-20T23:37:03.055Z,7.07
2018-09-20T23:39:31.333Z,9.50
2018-09-20T23:41:59.677Z,9.27
2018-09-20T23:44:27.950Z,10.50
2018-09-20T23:46:56.222Z,6.50
2018-09-20T23:49:24.474Z,8.33
2018-09-20T23:51:52.757Z,9.03
2018-09-20T23:54:20.998Z,6.87
2018-09-20T23:56:49.334Z,6.17
2018-09-20T23:59:17.553Z,6.00
